sensor_id;sensor_type;location;lat;lon;timestamp;pressure;altitude;pressure_sealevel;temperature;humidity
29385;BME280;16367;48.736;9.218;2023-11-18T00:01:44;-23308.44;;;4.42;100.00
29385;BME280;16367;48.736;9.218;2023-11-18T00:03:45;-23310.03;;;4.47;100.00
29385;BME280;16367;48.736;9.218;2023-11-18T00:05:47;-23310.19;;;4.48;100.00
29385;BME280;16367;48.736;9.218;2023-11-18T00:07:48;-23311.31;;;4.51;100.00
29385;BME280;16367;48.736;9.218;2023-11-18T00:09:51;-23313.06;;;4.57;100.00
29385;BME280;16367;48.736;9.218;2023-11-18T00:14:47;-23310.84;;;4.50;100.00
29385;BME280;16367;48.736;9.218;2023-11-18T00:16:49;-23314.50;;;4.62;100.00
29385;BME280;16367;48.736;9.218;2023-11-18T00:18:50;-23313.53;;;4.59;100.00
29385;BME280;16367;48.736;9.218;2023-11-18T00:20:51;-23314.66;;;4.62;100.00
29385;BME280;16367;48.736;9.218;2023-11-18T00:22:53;-23315.44;;;4.65;100.00
29385;BME280;16367;48.736;9.218;2023-11-18T00:24:55;-23318.00;;;4.73;100.00
29385;BME280;16367;48.736;9.218;2023-11-18T00:26:57;-23316.72;;;4.69;100.00
29385;BME280;16367;48.736;9.218;2023-11-18T00:28:58;-23317.84;;;4.72;100.00
29385;BME280;16367;48.736;9.218;2023-11-18T00:31:02;-23319.75;;;4.78;100.00
29385;BME280;16367;48.736;9.218;2023-11-18T00:37:14;-23324.22;;;4.92;100.00
29385;BME280;16367;48.736;9.218;2023-11-18T00:39:16;-23323.41;;;4.90;100.00
29385;BME280;16367;48.736;9.218;2023-11-18T00:41:17;-23321.03;;;4.82;100.00
29385;BME280;16367;48.736;9.218;2023-11-18T00:43:19;-23317.53;;;4.71;100.00
29385;BME280;16367;48.736;9.218;2023-11-18T00:45:20;-23320.72;;;4.81;100.00
29385;BME280;16367;48.736;9.218;2023-11-18T00:47:22;-23319.44;;;4.77;100.00
29385;BME280;16367;48.736;9.218;2023-11-18T00:49:24;-23320.38;;;4.80;100.00
29385;BME280;16367;48.736;9.218;2023-11-18T00:51:26;-23320.22;;;4.80;100.00
29385;BME280;16367;48.736;9.218;2023-11-18T00:53:30;-23320.72;;;4.81;100.00
29385;BME280;16367;48.736;9.218;2023-11-18T01:01:45;-23311.63;;;4.52;100.00
29385;BME280;16367;48.736;9.218;2023-11-18T01:03:47;-19716.13;;;4.58;100.00
29385;BME280;16367;48.736;9.218;2023-11-18T01:05:48;-14843.34;;;4.56;100.00
29385;BME280;16367;48.736;9.218;2023-11-18T01:07:50;-11814.94;;;4.56;100.00
29385;BME280;16367;48.736;9.218;2023-11-18T01:09:51;-12454.66;;;4.54;100.00
29385;BME280;16367;48.736;9.218;2023-11-18T01:11:53;-11814.88;;;4.55;100.00
29385;BME280;16367;48.736;9.218;2023-11-18T01:14:09;-10533.75;;;4.44;100.00
29385;BME280;16367;48.736;9.218;2023-11-18T01:16:10;-6051.31;;;4.48;100.00
29385;BME280;16367;48.736;9.218;2023-11-18T01:18:13;-3807.94;;;4.49;100.00
29385;BME280;16367;48.736;9.218;2023-11-18T01:26:27;-3166.69;;;4.52;100.00
29385;BME280;16367;48.736;9.218;2023-11-18T01:28:31;-5731.09;;;4.53;100.00
29385;BME280;16367;48.736;9.218;2023-11-18T01:30:33;-7332.69;;;4.48;100.00
29385;BME280;16367;48.736;9.218;2023-11-18T01:32:35;-7332.63;;;4.47;100.00
29385;BME280;16367;48.736;9.218;2023-11-18T01:34:36;-6692.28;;;4.53;100.00
29385;BME280;16367;48.736;9.218;2023-11-18T01:36:39;-7333.16;;;4.57;100.00
29385;BME280;16367;48.736;9.218;2023-11-18T01:38:40;-11174.28;;;4.49;100.00
29385;BME280;16367;48.736;9.218;2023-11-18T01:40:41;-10854.94;;;4.55;100.00
29385;BME280;16367;48.736;9.218;2023-11-18T01:42:44;-9894.91;;;4.57;100.00
29385;BME280;16367;48.736;9.218;2023-11-18T01:47:01;-10534.94;;;4.56;100.00
29385;BME280;16367;48.736;9.218;2023-11-18T01:49:07;-12455.50;;;4.61;100.00
29385;BME280;16367;48.736;9.218;2023-11-18T01:51:09;-15963.91;;;4.52;100.00
29385;BME280;16367;48.736;9.218;2023-11-18T01:53:11;-16514.28;;;4.70;100.00
29385;BME280;16367;48.736;9.218;2023-11-18T01:55:14;-21225.91;;;4.70;100.00
29385;BME280;16367;48.736;9.218;2023-11-18T01:57:17;-23313.06;;;4.57;100.00
29385;BME280;16367;48.736;9.218;2023-11-18T01:59:19;-23314.34;;;4.61;100.00
29385;BME280;16367;48.736;9.218;2023-11-18T02:01:21;-23317.38;;;4.71;100.00
29385;BME280;16367;48.736;9.218;2023-11-18T02:03:23;-23315.44;;;4.65;100.00
29385;BME280;16367;48.736;9.218;2023-11-18T02:09:40;-23313.69;;;4.59;100.00
29385;BME280;16367;48.736;9.218;2023-11-18T02:11:47;-23314.19;;;4.61;100.00
29385;BME280;16367;48.736;9.218;2023-11-18T02:13:55;-23317.84;;;4.72;100.00
29385;BME280;16367;48.736;9.218;2023-11-18T02:15:59;-23314.66;;;4.62;100.00
29385;BME280;16367;48.736;9.218;2023-11-18T02:18:03;-23315.59;;;4.65;100.00
29385;BME280;16367;48.736;9.218;2023-11-18T02:20:07;-23316.25;;;4.67;100.00
29385;BME280;16367;48.736;9.218;2023-11-18T02:22:17;-23317.84;;;4.72;100.00
29385;BME280;16367;48.736;9.218;2023-11-18T02:24:26;-23314.19;;;4.61;100.00
29385;BME280;16367;48.736;9.218;2023-11-18T02:26:28;-23314.97;;;4.63;100.00
29385;BME280;16367;48.736;9.218;2023-11-18T02:34:45;-23310.19;;;4.48;100.00
29385;BME280;16367;48.736;9.218;2023-11-18T02:36:50;-23307.97;;;4.41;100.00
29385;BME280;16367;48.736;9.218;2023-11-18T02:38:53;-22906.97;;;4.56;100.00
29385;BME280;16367;48.736;9.218;2023-11-18T02:40:58;-19520.25;;;4.53;100.00
29385;BME280;16367;48.736;9.218;2023-11-18T02:43:00;-20272.63;;;4.59;100.00
29385;BME280;16367;48.736;9.218;2023-11-18T02:45:02;-22113.00;;;4.51;100.00
29385;BME280;16367;48.736;9.218;2023-11-18T02:47:04;-22590.84;;;4.65;100.00
29385;BME280;16367;48.736;9.218;2023-11-18T02:49:06;-23321.03;;;4.82;100.00
29385;BME280;16367;48.736;9.218;2023-11-18T02:51:08;-23316.88;;;4.69;100.00
29385;BME280;16367;48.736;9.218;2023-11-18T02:53:10;-23314.97;;;4.63;100.00
29385;BME280;16367;48.736;9.218;2023-11-18T03:01:25;-23317.19;;;4.70;100.00
29385;BME280;16367;48.736;9.218;2023-11-18T03:03:28;-23316.25;;;4.67;100.00
29385;BME280;16367;48.736;9.218;2023-11-18T03:05:30;-23319.09;;;4.76;100.00
29385;BME280;16367;48.736;9.218;2023-11-18T03:07:31;-23314.34;;;4.61;100.00
29385;BME280;16367;48.736;9.218;2023-11-18T03:09:33;-23312.59;;;4.56;100.00
29385;BME280;16367;48.736;9.218;2023-11-18T03:11:35;-23312.44;;;4.55;100.00
29385;BME280;16367;48.736;9.218;2023-11-18T03:13:37;-23310.03;;;4.47;100.00
29385;BME280;16367;48.736;9.218;2023-11-18T03:15:39;-23312.09;;;4.54;100.00
29385;BME280;16367;48.736;9.218;2023-11-18T03:17:41;-23306.69;;;4.37;100.00
29385;BME280;16367;48.736;9.218;2023-11-18T03:25:56;-23300.97;;;4.19;100.00
29385;BME280;16367;48.736;9.218;2023-11-18T03:27:58;-23293.94;;;3.97;100.00
29385;BME280;16367;48.736;9.218;2023-11-18T03:29:59;-23286.25;;;4.10;100.00
29385;BME280;16367;48.736;9.218;2023-11-18T03:32:01;-17591.19;;;3.96;100.00
29385;BME280;16367;48.736;9.218;2023-11-18T03:34:03;-10848.13;;;3.96;100.00
29385;BME280;16367;48.736;9.218;2023-11-18T03:36:05;-6689.72;;;3.99;100.00
29385;BME280;16367;48.736;9.218;2023-11-18T03:38:07;-5729.25;;;3.95;100.00
29385;BME280;16367;48.736;9.218;2023-11-18T03:40:10;-4128.25;;;3.97;100.00
29385;BME280;16367;48.736;9.218;2023-11-18T03:42:12;-4768.81;;;4.01;100.00
29385;BME280;16367;48.736;9.218;2023-11-18T03:48:27;-6049.91;;;4.09;100.00
29385;BME280;16367;48.736;9.218;2023-11-18T03:50:29;-5730.16;;;4.24;100.00
29385;BME280;16367;48.736;9.218;2023-11-18T03:52:30;-9890.63;;;4.13;100.00
29385;BME280;16367;48.736;9.218;2023-11-18T03:54:31;-10531.59;;;4.25;100.00
29385;BME280;16367;48.736;9.218;2023-11-18T03:56:32;-15231.03;;;4.19;100.00
29385;BME280;16367;48.736;9.218;2023-11-18T03:58:34;-17911.34;;;4.22;100.00
29385;BME280;16367;48.736;9.218;2023-11-18T04:00:35;-22889.22;;;4.22;100.00
29385;BME280;16367;48.736;9.218;2023-11-18T04:02:37;-23304.78;;;4.31;100.00
29385;BME280;16367;48.736;9.218;2023-11-18T04:04:41;-23303.34;;;4.26;100.00
29385;BME280;16367;48.736;9.218;2023-11-18T04:08:55;-23309.25;;;4.45;100.00
29385;BME280;16367;48.736;9.218;2023-11-18T04:10:56;-23305.09;;;4.32;100.00
29385;BME280;16367;48.736;9.218;2023-11-18T04:12:59;-23310.19;;;4.48;100.00
29385;BME280;16367;48.736;9.218;2023-11-18T04:15:00;-23308.91;;;4.44;100.00
29385;BME280;16367;48.736;9.218;2023-11-18T04:17:01;-23306.06;;;4.35;100.00
29385;BME280;16367;48.736;9.218;2023-11-18T04:19:03;-23303.50;;;4.27;100.00
29385;BME280;16367;48.736;9.218;2023-11-18T04:21:04;-23303.81;;;4.28;100.00
29385;BME280;16367;48.736;9.218;2023-11-18T04:23:06;-23302.88;;;4.25;100.00
29385;BME280;16367;48.736;9.218;2023-11-18T04:25:09;-23303.19;;;4.26;100.00
29385;BME280;16367;48.736;9.218;2023-11-18T04:31:24;-23299.03;;;4.13;100.00
29385;BME280;16367;48.736;9.218;2023-11-18T04:33:26;-23300.00;;;4.16;100.00
29385;BME280;16367;48.736;9.218;2023-11-18T04:35:30;-23298.09;;;4.10;100.00
29385;BME280;16367;48.736;9.218;2023-11-18T04:37:31;-23297.63;;;4.08;100.00
29385;BME280;16367;48.736;9.218;2023-11-18T04:39:33;-23296.50;;;4.05;100.00
29385;BME280;16367;48.736;9.218;2023-11-18T04:41:34;-23292.03;;;3.91;100.00
29385;BME280;16367;48.736;9.218;2023-11-18T04:43:37;-23295.38;;;4.01;100.00
29385;BME280;16367;48.736;9.218;2023-11-18T04:45:46;-23293.47;;;3.95;100.00
29385;BME280;16367;48.736;9.218;2023-11-18T04:47:48;-23295.53;;;4.02;100.00
29385;BME280;16367;48.736;9.218;2023-11-18T04:52:35;-23293.63;;;3.96;100.00
29385;BME280;16367;48.736;9.218;2023-11-18T04:54:37;-23290.13;;;3.85;100.00
29385;BME280;16367;48.736;9.218;2023-11-18T04:56:38;-23291.72;;;3.90;100.00
29385;BME280;16367;48.736;9.218;2023-11-18T04:58:40;-23293.00;;;3.94;100.00
29385;BME280;16367;48.736;9.218;2023-11-18T05:00:42;-23291.41;;;3.89;100.00
29385;BME280;16367;48.736;9.218;2023-11-18T05:02:44;-23291.88;;;3.90;100.00
29385;BME280;16367;48.736;9.218;2023-11-18T05:04:48;-23291.72;;;3.90;100.00
29385;BME280;16367;48.736;9.218;2023-11-18T05:06:50;-23289.81;;;3.84;100.00
29385;BME280;16367;48.736;9.218;2023-11-18T05:08:53;-23293.16;;;3.94;100.00
29385;BME280;16367;48.736;9.218;2023-11-18T05:14:17;-23293.31;;;3.95;100.00
29385;BME280;16367;48.736;9.218;2023-11-18T05:16:18;-23290.75;;;3.87;100.00
29385;BME280;16367;48.736;9.218;2023-11-18T05:18:20;-23290.28;;;3.85;100.00
29385;BME280;16367;48.736;9.218;2023-11-18T05:20:22;-23289.81;;;3.84;100.00
29385;BME280;16367;48.736;9.218;2023-11-18T05:22:23;-23289.81;;;3.84;100.00
29385;BME280;16367;48.736;9.218;2023-11-18T05:24:24;-23288.22;;;3.78;100.00
29385;BME280;16367;48.736;9.218;2023-11-18T05:26:26;-23286.63;;;3.73;100.00
29385;BME280;16367;48.736;9.218;2023-11-18T05:28:28;-23287.25;;;3.75;100.00
29385;BME280;16367;48.736;9.218;2023-11-18T05:30:31;-23287.09;;;3.75;100.00
29385;BME280;16367;48.736;9.218;2023-11-18T05:34:46;-23282.16;;;3.59;100.00
29385;BME280;16367;48.736;9.218;2023-11-18T05:36:48;-23282.81;;;3.61;100.00
29385;BME280;16367;48.736;9.218;2023-11-18T05:38:52;-23284.06;;;3.65;100.00
29385;BME280;16367;48.736;9.218;2023-11-18T05:40:53;-23284.06;;;3.65;100.00
29385;BME280;16367;48.736;9.218;2023-11-18T05:42:58;-23285.66;;;3.70;100.00
29385;BME280;16367;48.736;9.218;2023-11-18T05:44:59;-23283.91;;;3.65;100.00
29385;BME280;16367;48.736;9.218;2023-11-18T05:47:00;-23283.13;;;3.62;100.00
29385;BME280;16367;48.736;9.218;2023-11-18T05:49:03;-23282.47;;;3.60;100.00
29385;BME280;16367;48.736;9.218;2023-11-18T05:51:09;-23281.38;;;3.57;100.00
29385;BME280;16367;48.736;9.218;2023-11-18T05:57:24;-23283.91;;;3.65;100.00
29385;BME280;16367;48.736;9.218;2023-11-18T05:59:28;-23282.47;;;3.60;100.00
29385;BME280;16367;48.736;9.218;2023-11-18T06:01:29;-23283.91;;;3.65;100.00
29385;BME280;16367;48.736;9.218;2023-11-18T06:03:31;-23281.84;;;3.58;100.00
29385;BME280;16367;48.736;9.218;2023-11-18T06:05:32;-23281.84;;;3.58;100.00
29385;BME280;16367;48.736;9.218;2023-11-18T06:07:35;-23280.25;;;3.53;100.00
29385;BME280;16367;48.736;9.218;2023-11-18T06:09:37;-23279.28;;;3.50;100.00
29385;BME280;16367;48.736;9.218;2023-11-18T06:11:38;-23279.59;;;3.51;100.00
29385;BME280;16367;48.736;9.218;2023-11-18T06:13:43;-23277.69;;;3.45;100.00
29385;BME280;16367;48.736;9.218;2023-11-18T06:19:06;-23274.03;;;3.34;100.00
29385;BME280;16367;48.736;9.218;2023-11-18T06:21:07;-23274.34;;;3.35;100.00
29385;BME280;16367;48.736;9.218;2023-11-18T06:23:10;-23272.44;;;3.29;100.00
29385;BME280;16367;48.736;9.218;2023-11-18T06:25:12;-23271.00;;;3.24;100.00
29385;BME280;16367;48.736;9.218;2023-11-18T06:27:13;-22233.59;;;3.21;100.00
29385;BME280;16367;48.736;9.218;2023-11-18T06:29:16;-19377.72;;;3.24;100.00
29385;BME280;16367;48.736;9.218;2023-11-18T06:31:18;-16442.13;;;3.26;100.00
29385;BME280;16367;48.736;9.218;2023-11-18T06:33:19;-12755.91;;;3.27;100.00
29385;BME280;16367;48.736;9.218;2023-11-18T06:35:24;-11479.22;;;3.29;100.00
29385;BME280;16367;48.736;9.218;2023-11-18T06:40:02;-10202.19;;;3.34;100.00
29385;BME280;16367;48.736;9.218;2023-11-18T06:42:07;-10840.81;;;3.32;100.00
29385;BME280;16367;48.736;9.218;2023-11-18T06:44:12;-10201.53;;;3.27;100.00
29385;BME280;16367;48.736;9.218;2023-11-18T06:46:19;-6047.47;;;3.42;100.00
29385;BME280;16367;48.736;9.218;2023-11-18T06:48:21;-8605.00;;;3.38;100.00
29385;BME280;16367;48.736;9.218;2023-11-18T06:50:23;-8605.84;;;3.49;100.00
29385;BME280;16367;48.736;9.218;2023-11-18T06:52:25;-13715.25;;;3.38;100.00
29385;BME280;16367;48.736;9.218;2023-11-18T06:54:27;-15787.22;;;3.40;100.00
29385;BME280;16367;48.736;9.218;2023-11-18T06:56:29;-17961.34;;;3.36;100.00
29385;BME280;16367;48.736;9.218;2023-11-18T07:02:49;-21693.22;;;3.36;100.00
29385;BME280;16367;48.736;9.218;2023-11-18T07:04:50;-22959.25;;;3.35;100.00
29385;BME280;16367;48.736;9.218;2023-11-18T07:06:52;-22459.69;;;3.37;100.00
29385;BME280;16367;48.736;9.218;2023-11-18T07:08:54;-23274.34;;;3.35;100.00
29385;BME280;16367;48.736;9.218;2023-11-18T07:10:56;-23120.38;;;3.49;100.00
29385;BME280;16367;48.736;9.218;2023-11-18T07:12:57;-23279.94;;;3.52;100.00
29385;BME280;16367;48.736;9.218;2023-11-18T07:15:00;-23282.94;;;3.62;100.00
29385;BME280;16367;48.736;9.218;2023-11-18T07:17:02;-23289.31;;;3.82;100.00
29385;BME280;16367;48.736;9.218;2023-11-18T07:19:06;-23290.94;;;3.87;100.00
29385;BME280;16367;48.736;9.218;2023-11-18T07:25:17;-23297.78;;;4.09;100.00
29385;BME280;16367;48.736;9.218;2023-11-18T07:27:19;-23296.19;;;4.04;100.00
29385;BME280;16367;48.736;9.218;2023-11-18T07:29:21;-23299.38;;;4.14;100.00
29385;BME280;16367;48.736;9.218;2023-11-18T07:31:24;-23303.03;;;4.25;100.00
29385;BME280;16367;48.736;9.218;2023-11-18T07:33:25;-23310.84;;;4.50;100.00
29385;BME280;16367;48.736;9.218;2023-11-18T07:35:27;-23314.66;;;4.62;100.00
29385;BME280;16367;48.736;9.218;2023-11-18T07:37:30;-23311.16;;;4.51;100.00
29385;BME280;16367;48.736;9.218;2023-11-18T07:39:33;-23308.44;;;4.42;100.00
29385;BME280;16367;48.736;9.218;2023-11-18T07:41:45;-23313.06;;;4.57;100.00
29385;BME280;16367;48.736;9.218;2023-11-18T07:48:25;-23318.78;;;4.75;100.00
29385;BME280;16367;48.736;9.218;2023-11-18T07:50:26;-23316.88;;;4.69;100.00
29385;BME280;16367;48.736;9.218;2023-11-18T07:52:27;-23327.38;;;5.02;100.00
29385;BME280;16367;48.736;9.218;2023-11-18T07:54:29;-23330.25;;;5.11;100.00
29385;BME280;16367;48.736;9.218;2023-11-18T07:56:31;-23331.22;;;5.14;100.00
29385;BME280;16367;48.736;9.218;2023-11-18T07:58:33;-23333.44;;;5.21;100.00
29385;BME280;16367;48.736;9.218;2023-11-18T08:00:38;-23335.34;;;5.27;100.00
29385;BME280;16367;48.736;9.218;2023-11-18T08:02:40;-23328.97;;;5.07;100.00
29385;BME280;16367;48.736;9.218;2023-11-18T08:04:41;-23326.75;;;5.00;100.00
29385;BME280;16367;48.736;9.218;2023-11-18T08:12:57;-23333.91;;;5.23;100.00
29385;BME280;16367;48.736;9.218;2023-11-18T08:15:00;-23327.72;;;5.03;100.00
29385;BME280;16367;48.736;9.218;2023-11-18T08:17:03;-23334.72;;;5.25;100.00
29385;BME280;16367;48.736;9.218;2023-11-18T08:19:06;-23329.94;;;5.10;100.00
29385;BME280;16367;48.736;9.218;2023-11-18T08:21:08;-23330.88;;;5.13;100.00
29385;BME280;16367;48.736;9.218;2023-11-18T08:23:10;-23325.63;;;4.97;100.00
29385;BME280;16367;48.736;9.218;2023-11-18T08:25:12;-23325.81;;;4.97;100.00
29385;BME280;16367;48.736;9.218;2023-11-18T08:27:13;-23327.06;;;5.01;100.00
29385;BME280;16367;48.736;9.218;2023-11-18T08:29:15;-23317.69;;;4.72;100.00
29385;BME280;16367;48.736;9.218;2023-11-18T08:31:17;-23321.03;;;4.82;100.00
29385;BME280;16367;48.736;9.218;2023-11-18T08:36:24;-23318.47;;;4.74;100.00
29385;BME280;16367;48.736;9.218;2023-11-18T08:38:28;-23323.91;;;4.91;100.00
29385;BME280;16367;48.736;9.218;2023-11-18T08:40:30;-23322.94;;;4.88;100.00
29385;BME280;16367;48.736;9.218;2023-11-18T08:42:32;-23321.81;;;4.85;100.00
29385;BME280;16367;48.736;9.218;2023-11-18T08:44:34;-23321.97;;;4.85;100.00
29385;BME280;16367;48.736;9.218;2023-11-18T08:46:36;-23318.78;;;4.75;100.00
29385;BME280;16367;48.736;9.218;2023-11-18T08:48:37;-23321.34;;;4.83;100.00
29385;BME280;16367;48.736;9.218;2023-11-18T08:50:39;-23324.22;;;4.92;100.00
29385;BME280;16367;48.736;9.218;2023-11-18T08:52:41;-23324.22;;;4.92;100.00
29385;BME280;16367;48.736;9.218;2023-11-18T08:58:53;-23332.47;;;5.18;100.00
29385;BME280;16367;48.736;9.218;2023-11-18T09:00:56;-23334.72;;;5.25;100.00
29385;BME280;16367;48.736;9.218;2023-11-18T09:03:05;-23333.44;;;5.21;100.00
29385;BME280;16367;48.736;9.218;2023-11-18T09:05:07;-23334.72;;;5.25;100.00
29385;BME280;16367;48.736;9.218;2023-11-18T09:07:13;-23341.06;;;5.46;100.00
29385;BME280;16367;48.736;9.218;2023-11-18T09:09:15;-23354.28;;;5.87;100.00
29385;BME280;16367;48.736;9.218;2023-11-18T09:11:17;-23348.72;;;5.70;100.00
29385;BME280;16367;48.736;9.218;2023-11-18T09:13:18;-23356.34;;;5.94;100.00
29385;BME280;16367;48.736;9.218;2023-11-18T09:15:21;-23348.56;;;5.69;100.00
29385;BME280;16367;48.736;9.218;2023-11-18T09:22:06;-23349.34;;;5.72;100.00
29385;BME280;16367;48.736;9.218;2023-11-18T09:24:07;-23348.09;;;5.68;100.00
29385;BME280;16367;48.736;9.218;2023-11-18T09:26:13;-23342.66;;;5.51;100.00
29385;BME280;16367;48.736;9.218;2023-11-18T09:28:15;-23350.47;;;5.75;100.00
29385;BME280;16367;48.736;9.218;2023-11-18T09:30:17;-23348.72;;;5.70;100.00
29385;BME280;16367;48.736;9.218;2023-11-18T09:32:18;-23365.25;;;6.22;100.00
29385;BME280;16367;48.736;9.218;2023-11-18T09:34:19;-23366.38;;;6.26;100.00
29385;BME280;16367;48.736;9.218;2023-11-18T09:36:27;-23356.03;;;5.93;100.00
29385;BME280;16367;48.736;9.218;2023-11-18T09:38:32;-23359.06;;;6.03;100.00
29385;BME280;16367;48.736;9.218;2023-11-18T09:44:49;-23367.81;;;6.30;100.00
29385;BME280;16367;48.736;9.218;2023-11-18T09:46:52;-23371.78;;;6.43;100.00
29385;BME280;16367;48.736;9.218;2023-11-18T09:49:10;-23368.44;;;6.32;100.00
29385;BME280;16367;48.736;9.218;2023-11-18T09:51:20;-23371.94;;;6.43;100.00
29385;BME280;16367;48.736;9.218;2023-11-18T09:53:22;-23373.84;;;6.49;100.00
29385;BME280;16367;48.736;9.218;2023-11-18T09:55:33;-23359.22;;;6.03;100.00
29385;BME280;16367;48.736;9.218;2023-11-18T09:57:44;-23366.53;;;6.26;100.00
29385;BME280;16367;48.736;9.218;2023-11-18T09:59:52;-23368.91;;;6.34;100.00
29385;BME280;16367;48.736;9.218;2023-11-18T10:01:57;-23378.78;;;6.65;100.00
29385;BME280;16367;48.736;9.218;2023-11-18T10:08:26;-23372.72;;;6.46;100.00
29385;BME280;16367;48.736;9.218;2023-11-18T10:10:29;-23379.88;;;6.68;100.00
29385;BME280;16367;48.736;9.218;2023-11-18T10:12:37;-23375.13;;;6.53;100.00
29385;BME280;16367;48.736;9.218;2023-11-18T10:14:42;-23370.50;;;6.39;100.00
29385;BME280;16367;48.736;9.218;2023-11-18T10:16:44;-23377.66;;;6.61;100.00
29385;BME280;16367;48.736;9.218;2023-11-18T10:18:49;-23388.16;;;6.95;100.00
29385;BME280;16367;48.736;9.218;2023-11-18T10:20:52;-23389.75;;;7.00;100.00
29385;BME280;16367;48.736;9.218;2023-11-18T10:23:05;-23389.44;;;6.99;99.91
29385;BME280;16367;48.736;9.218;2023-11-18T10:25:08;-23393.56;;;7.12;99.01
29385;BME280;16367;48.736;9.218;2023-11-18T10:31:19;-23395.47;;;7.18;98.00
29385;BME280;16367;48.736;9.218;2023-11-18T10:33:21;-23399.44;;;7.30;98.45
29385;BME280;16367;48.736;9.218;2023-11-18T10:35:24;-23402.13;;;7.39;98.16
29385;BME280;16367;48.736;9.218;2023-11-18T10:37:26;-23396.41;;;7.21;97.16
29385;BME280;16367;48.736;9.218;2023-11-18T10:39:32;-23394.81;;;7.16;97.07
29385;BME280;16367;48.736;9.218;2023-11-18T10:41:39;-23389.44;;;6.99;99.60
29385;BME280;16367;48.736;9.218;2023-11-18T10:43:43;-23390.38;;;7.02;100.00
29385;BME280;16367;48.736;9.218;2023-11-18T10:45:45;-23397.69;;;7.25;100.00
29385;BME280;16367;48.736;9.218;2023-11-18T10:47:48;-23399.91;;;7.32;100.00
29385;BME280;16367;48.736;9.218;2023-11-18T10:54:05;-23392.28;;;7.08;98.80
29385;BME280;16367;48.736;9.218;2023-11-18T10:56:17;-23400.22;;;7.33;99.59
29385;BME280;16367;48.736;9.218;2023-11-18T10:58:21;-23394.34;;;7.14;100.00
29385;BME280;16367;48.736;9.218;2023-11-18T11:00:23;-23392.59;;;7.09;99.69
29385;BME280;16367;48.736;9.218;2023-11-18T11:02:30;-23397.84;;;7.25;98.41
29385;BME280;16367;48.736;9.218;2023-11-18T11:04:43;-23397.06;;;7.23;96.54
29385;BME280;16367;48.736;9.218;2023-11-18T11:06:48;-23396.41;;;7.21;97.14
29385;BME280;16367;48.736;9.218;2023-11-18T11:08:53;-23399.28;;;7.30;98.31
29385;BME280;16367;48.736;9.218;2023-11-18T11:10:56;-23399.28;;;7.30;98.20
29385;BME280;16367;48.736;9.218;2023-11-18T11:17:17;-23401.34;;;7.36;97.29
29385;BME280;16367;48.736;9.218;2023-11-18T11:19:29;-23407.53;;;7.56;98.12
29385;BME280;16367;48.736;9.218;2023-11-18T11:21:44;-23402.44;;;7.40;96.49
29385;BME280;16367;48.736;9.218;2023-11-18T11:23:53;-23411.03;;;7.67;96.82
29385;BME280;16367;48.736;9.218;2023-11-18T11:26:02;-23408.50;;;7.59;97.14
29385;BME280;16367;48.736;9.218;2023-11-18T11:28:12;-23407.38;;;7.56;96.63
29385;BME280;16367;48.736;9.218;2023-11-18T11:30:21;-23407.69;;;7.57;96.40
29385;BME280;16367;48.736;9.218;2023-11-18T11:32:28;-23410.06;;;7.64;96.23
29385;BME280;16367;48.736;9.218;2023-11-18T11:34:31;-23411.66;;;7.69;96.30
29385;BME280;16367;48.736;9.218;2023-11-18T11:40:49;-23399.59;;;7.31;94.24
29385;BME280;16367;48.736;9.218;2023-11-18T11:42:53;-23396.56;;;7.21;93.69
29385;BME280;16367;48.736;9.218;2023-11-18T11:44:56;-23401.19;;;7.36;93.91
29385;BME280;16367;48.736;9.218;2023-11-18T11:46:59;-23404.34;;;7.46;94.02
29385;BME280;16367;48.736;9.218;2023-11-18T11:49:04;-23404.69;;;7.47;94.77
29385;BME280;16367;48.736;9.218;2023-11-18T11:51:21;-23397.69;;;7.25;93.49
29385;BME280;16367;48.736;9.218;2023-11-18T11:53:31;-23403.09;;;7.42;93.09
29385;BME280;16367;48.736;9.218;2023-11-18T11:55:44;-23400.53;;;7.34;93.51
29385;BME280;16367;48.736;9.218;2023-11-18T11:57:51;-23399.44;;;7.30;94.96
29385;BME280;16367;48.736;9.218;2023-11-18T12:04:09;-23404.19;;;7.45;95.37
29385;BME280;16367;48.736;9.218;2023-11-18T12:06:21;-23414.53;;;7.78;94.09
29385;BME280;16367;48.736;9.218;2023-11-18T12:08:24;-23420.25;;;7.96;92.49
29385;BME280;16367;48.736;9.218;2023-11-18T12:10:26;-23416.28;;;7.84;92.20
29385;BME280;16367;48.736;9.218;2023-11-18T12:12:29;-23405.78;;;7.50;93.81
29385;BME280;16367;48.736;9.218;2023-11-18T12:14:31;-23405.78;;;7.50;93.63
29385;BME280;16367;48.736;9.218;2023-11-18T12:16:58;-23405.31;;;7.49;93.81
29385;BME280;16367;48.736;9.218;2023-11-18T12:19:29;-23412.94;;;7.73;94.76
29385;BME280;16367;48.736;9.218;2023-11-18T12:24:20;-23412.63;;;7.72;93.27
29385;BME280;16367;48.736;9.218;2023-11-18T12:26:47;-23406.59;;;7.53;94.01
29385;BME280;16367;48.736;9.218;2023-11-18T12:28:50;-23406.28;;;7.52;94.26
29385;BME280;16367;48.736;9.218;2023-11-18T12:30:54;-23407.06;;;7.54;94.92
29385;BME280;16367;48.736;9.218;2023-11-18T12:33:00;-23400.88;;;7.35;94.18
29385;BME280;16367;48.736;9.218;2023-11-18T12:35:06;-23405.31;;;7.49;94.77
29385;BME280;16367;48.736;9.218;2023-11-18T12:37:38;-23404.03;;;7.45;94.89
29385;BME280;16367;48.736;9.218;2023-11-18T12:47:56;-23409.13;;;7.61;93.30
29385;BME280;16367;48.736;9.218;2023-11-18T12:50:12;-23412.63;;;7.72;92.75
29385;BME280;16367;48.736;9.218;2023-11-18T12:52:24;-23407.84;;;7.57;92.18
29385;BME280;16367;48.736;9.218;2023-11-18T12:54:29;-23405.63;;;7.50;94.07
29385;BME280;16367;48.736;9.218;2023-11-18T12:56:31;-23405.94;;;7.51;93.69
29385;BME280;16367;48.736;9.218;2023-11-18T12:58:33;-23407.38;;;7.56;94.94
29385;BME280;16367;48.736;9.218;2023-11-18T13:00:35;-23405.63;;;7.50;95.15
29385;BME280;16367;48.736;9.218;2023-11-18T13:06:51;-23406.28;;;7.52;95.99
29385;BME280;16367;48.736;9.218;2023-11-18T13:08:54;-23408.81;;;7.60;96.08
29385;BME280;16367;48.736;9.218;2023-11-18T13:10:55;-23408.00;;;7.58;96.75
29385;BME280;16367;48.736;9.218;2023-11-18T13:12:59;-23408.16;;;7.58;97.03
29385;BME280;16367;48.736;9.218;2023-11-18T13:15:01;-23403.41;;;7.43;97.67
29385;BME280;16367;48.736;9.218;2023-11-18T13:17:04;-23400.88;;;7.35;97.99
29385;BME280;16367;48.736;9.218;2023-11-18T13:19:06;-23401.81;;;7.38;98.64